Main page
Satellite images 10-day forecastsClimateMarine weather Cyclones Lightning AirportsFAQ Newsletter About
Weather : Europe Africa North America South America Asia Australia-Oceania Others
Languages Contact

Singapore, Singapore

Paya Lebar Air Base

latitude: 01-22N, longitude: 103-55E, elevation: 18 m


METAR: WSAP 010500Z 17011KT 9999 FEW016 BKN150 28/24 Q1012
TAF: WSAP 010500Z 0106/0212 15008KT 9999 FEW018CB SCT020 TEMPO 0107/0111 3000 TSRA FEW012CB BKN015

Time: 13:42 (05:42 UTC)

Current weather observation

The report was made 42 minutes ago, at 05:00 UTC
Wind 11 kt from the South
Temperature 28°C
Humidity 79%
Pressure 1012 hPa
Visibility 10 km or more
Few clouds at a height of 1600 ft
Broken clouds at a height of 15000 ft

Change units

Forecast

The report was made 42 minutes ago, at 05:00 UTC
Forecast valid from 01 at 06 UTC to 02 at 12 UTC
Wind 8 kt from the South/Southeast
Visibility 10 km or more
Few clouds at a height of 1800 ft, Cumulonimbus.
Scattered clouds at a height of 2000 ft
Temporary
from 01 at 07 UTC to 01 at 11 UTC
Visibility: 3000 m
Few clouds at a height of 1200 ft, Cumulonimbus.
Broken clouds at a height of 1500 ft
thunderstorm, rain
The information on this site is subject to a disclaimer
Weather : Europe Africa North America South America Asia Australia-Oceania Others
Satellite images 10-day forecastsClimateMarine weather Cyclones Lightning AirportsFAQ Languages Contact Newsletter About